Time;durP1;ratioP1;P1;durP2;ratioP2;P2;SDS_P1;SDS_P2;PMS_P1;PMS_P2;Temp;Humidity;BMP_temperature;BMP_pressure;BME280_temperature;BME280_humidity;BME280_pressure;Samples;Min_cycle;Max_cycle;Signal;HPM_P1;HPM_P2
2022/08/02 00:00:21;;;;;;;3.00;1.88;;;;;;;20.12;65.51;96587.88;5062853;28;20423;-65
2022/08/02 00:02:48;;;;;;;2.70;1.98;;;;;;;20.42;65.44;96634.53;5062843;28;20064;-58
2022/08/02 00:05:15;;;;;;;3.28;1.92;;;;;;;19.92;65.33;96555.53;5064775;28;20052;-66
2022/08/02 00:07:41;;;;;;;2.42;2.00;;;;;;;20.24;65.39;96625.78;5063998;28;20104;-66
2022/08/02 00:10:10;;;;;;;2.05;1.83;;;;;;;20.21;65.88;96623.88;5062766;28;20564;-66
2022/08/02 00:12:38;;;;;;;3.08;2.22;;;;;;;20.20;65.75;96622.28;5064090;28;20052;-60
2022/08/02 00:15:08;;;;;;;2.65;2.28;;;;;;;19.98;65.29;96587.50;5064463;28;20113;-66
2022/08/02 00:17:34;;;;;;;3.00;1.90;;;;;;;19.91;65.29;96593.31;5062658;28;20056;-59
2022/08/02 00:20:02;;;;;;;2.00;1.80;;;;;;;20.12;65.28;96612.44;5064463;28;20052;-66
2022/08/02 00:22:29;;;;;;;2.38;2.10;;;;;;;20.10;65.38;96617.72;5065208;28;20060;-58
2022/08/02 00:24:55;;;;;;;2.05;1.92;;;;;;;20.21;65.53;96635.91;5066376;28;20578;-66
2022/08/02 00:27:22;;;;;;;2.42;1.70;;;;;;;19.85;65.50;96589.47;5067710;28;20048;-59
2022/08/02 00:29:50;;;;;;;2.20;2.00;;;;;;;20.10;65.92;96628.94;5066274;28;20045;-58
2022/08/02 00:32:20;;;;;;;1.85;1.70;;;;;;;19.75;65.77;96579.28;5067300;28;20151;-66
2022/08/02 00:34:47;;;;;;;1.95;1.85;;;;;;;19.97;67.65;96642.16;5067617;28;20510;-59
2022/08/02 00:37:14;;;;;;;4.28;2.60;;;;;;;20.06;68.12;96639.53;5067039;28;20052;-61
2022/08/02 00:39:41;;;;;;;6.63;3.47;;;;;;;19.70;69.78;96645.25;5066054;28;20052;-58
2022/08/02 00:42:08;;;;;;;2.85;2.50;;;;;;;19.56;70.83;96640.00;5067066;28;20507;-66
2022/08/02 00:44:36;;;;;;;2.88;2.38;;;;;;;19.54;71.87;96642.44;5067546;28;20048;-66
2022/08/02 00:47:03;;;;;;;12.80;4.78;;;;;;;19.31;72.54;96617.34;5066880;28;20503;-66
2022/08/02 00:49:30;;;;;;;6.35;2.75;;;;;;;19.39;72.88;96632.78;5065755;28;20052;-59
2022/08/02 00:51:59;;;;;;;3.50;2.40;;;;;;;18.94;72.10;96576.44;5066824;28;20087;-58
2022/08/02 00:54:26;;;;;;;2.17;1.98;;;;;;;19.25;71.17;96628.25;5065611;28;20048;-57
2022/08/02 00:56:52;;;;;;;3.03;1.88;;;;;;;19.20;71.87;96640.03;5066623;28;20048;-66
2022/08/02 00:59:19;;;;;;;3.28;1.90;;;;;;;19.11;72.16;96630.63;5067097;28;20052;-58
2022/08/02 01:01:45;;;;;;;1.98;1.85;;;;;;;18.76;72.65;96576.03;5067186;28;20060;-66
2022/08/02 01:04:26;;;;;;;3.13;2.10;;;;;;;18.41;72.65;96537.56;5066874;28;20144;-59
2022/08/02 01:07:02;;;;;;;2.00;1.90;;;;;;;18.65;73.92;96586.72;5066745;28;20052;-58
2022/08/02 01:09:41;;;;;;;1.92;1.83;;;;;;;18.93;73.67;96636.63;5066854;28;20505;-66
2022/08/02 01:12:07;;;;;;;2.28;2.08;;;;;;;18.83;73.58;96620.81;5064791;28;20535;-66
2022/08/02 01:14:36;;;;;;;4.28;2.20;;;;;;;18.89;73.43;96624.69;5066814;28;20147;-66
2022/08/02 01:17:11;;;;;;;2.10;1.90;;;;;;;18.82;73.15;96629.66;5066368;28;20052;-58
2022/08/02 01:20:11;;;;;;;1.98;1.83;;;;;;;18.79;73.12;96630.53;5066458;28;20489;-66
2022/08/02 01:22:47;;;;;;;1.95;1.77;;;;;;;18.74;73.03;96623.41;5066519;28;20063;-66
2022/08/02 01:26:17;;;;;;;2.88;1.75;;;;;;;18.68;73.28;96630.78;5066412;28;20057;-59
2022/08/02 01:29:07;;;;;;;4.27;2.00;;;;;;;18.22;74.37;96574.81;5066486;28;20056;-66
2022/08/02 01:31:41;;;;;;;4.80;2.40;;;;;;;18.65;74.95;96630.84;5065730;28;20789;-66
2022/08/02 01:34:20;;;;;;;2.75;2.08;;;;;;;18.59;75.62;96633.34;5065556;28;20056;-58
2022/08/02 01:36:53;;;;;;;3.60;2.08;;;;;;;18.53;76.24;96626.66;5065777;28;20110;-65
2022/08/02 01:39:25;;;;;;;2.33;1.73;;;;;;;18.60;75.51;96645.38;5066050;28;20148;-66
2022/08/02 01:42:00;;;;;;;2.30;2.10;;;;;;;18.50;75.51;96633.13;5066227;28;20052;-65
2022/08/02 01:44:29;;;;;;;2.63;1.80;;;;;;;18.39;75.50;96635.38;5066490;28;20053;-66
2022/08/02 01:47:02;;;;;;;1.75;1.65;;;;;;;18.30;75.96;96632.31;5066093;28;20443;-65
2022/08/02 01:49:31;;;;;;;1.90;1.70;;;;;;;18.40;75.67;96631.34;5066343;28;20056;-65
2022/08/02 01:55:09;;;;;;;1.75;1.65;;;;;;;18.16;75.20;96621.41;4983682;28;20046;-58
2022/08/02 01:57:57;;;;;;;1.77;1.67;;;;;;;18.27;75.29;96630.38;5057294;28;20430;-58
2022/08/02 02:00:27;;;;;;;4.65;1.52;;;;;;;18.20;75.65;96636.13;5065126;28;20052;-66
2022/08/02 02:02:56;;;;;;;2.50;2.15;;;;;;;18.01;76.05;96620.06;5064156;28;20067;-62
2022/08/02 02:05:26;;;;;;;3.85;1.80;;;;;;;18.21;75.62;96629.28;5065218;28;20099;-65
2022/08/02 02:07:55;;;;;;;2.10;1.90;;;;;;;18.25;75.82;96634.81;5063966;28;20118;-60
2022/08/02 02:10:31;;;;;;;1.50;1.40;;;;;;;17.88;76.72;96622.69;5063501;28;20511;-66
2022/08/02 02:13:17;;;;;;;2.08;1.50;;;;;;;17.65;76.50;96574.31;5065591;28;20064;-66
2022/08/02 02:15:47;;;;;;;2.22;1.70;;;;;;;18.04;76.49;96622.00;5063938;28;20113;-59
2022/08/02 02:18:19;;;;;;;1.80;1.70;;;;;;;18.06;76.12;96619.56;5064999;28;20064;-66
2022/08/02 02:20:46;;;;;;;1.73;1.63;;;;;;;18.01;77.01;96632.06;5063825;28;20139;-59
2022/08/02 02:23:13;;;;;;;3.30;1.80;;;;;;;18.03;77.14;96624.03;5063983;28;20056;-65
2022/08/02 02:25:41;;;;;;;2.13;1.92;;;;;;;17.90;76.97;96602.66;5063716;28;20064;-66
2022/08/02 02:28:21;;;;;;;2.10;1.90;;;;;;;17.97;77.86;96619.34;5065311;28;20056;-61
2022/08/02 02:30:52;;;;;;;2.60;2.30;;;;;;;17.45;79.97;96582.66;5065361;28;20059;-61
2022/08/02 02:33:22;;;;;;;4.10;2.67;;;;;;;17.66;80.67;96627.09;5065344;28;20055;-66
2022/08/02 02:35:58;;;;;;;8.73;3.42;;;;;;;17.45;82.14;96601.47;5065203;28;20145;-58
2022/08/02 02:38:29;;;;;;;5.18;2.88;;;;;;;17.62;82.72;96625.59;5065150;28;20056;-66
2022/08/02 02:40:59;;;;;;;3.13;2.13;;;;;;;16.86;83.52;96561.22;5065131;28;20373;-58
2022/08/02 02:43:31;;;;;;;2.45;2.25;;;;;;;14.81;84.94;96244.03;5064817;28;20060;-66
2022/08/02 02:46:00;;;;;;;3.33;2.38;;;;;;;16.90;88.19;96634.72;5064917;28;20048;-58
2022/08/02 02:48:28;;;;;;;3.17;2.35;;;;;;;17.02;88.38;96620.13;5063106;28;20071;-66
2022/08/02 02:50:57;;;;;;;2.22;2.03;;;;;;;16.84;88.46;96588.81;5064704;28;20064;-59
2022/08/02 02:53:25;;;;;;;2.58;2.30;;;;;;;16.58;88.33;96540.84;5064803;28;20492;-66
2022/08/02 02:55:52;;;;;;;2.38;2.17;;;;;;;17.24;88.13;96626.97;5063455;28;20449;-59
2022/08/02 02:58:28;;;;;;;2.33;2.10;;;;;;;17.30;86.81;96619.69;5064119;28;20380;-66
2022/08/02 03:03:43;;;;;;;1.73;1.63;;;;;;;17.46;82.99;96634.66;5064687;28;20084;-58
2022/08/02 03:06:11;;;;;;;2.47;2.03;;;;;;;17.46;81.94;96631.06;5064940;28;20467;-65
2022/08/02 03:08:41;;;;;;;2.33;1.50;;;;;;;17.47;81.49;96629.81;5064525;28;20052;-66
2022/08/02 03:11:09;;;;;;;2.00;1.80;;;;;;;17.51;80.83;96641.78;5064792;28;20061;-66
2022/08/02 03:13:37;;;;;;;3.83;2.15;;;;;;;17.51;80.93;96638.97;5064701;28;20052;-60
2022/08/02 03:16:05;;;;;;;1.83;1.70;;;;;;;17.51;80.95;96638.97;5064848;28;20450;-66
2022/08/02 03:18:37;;;;;;;2.38;1.90;;;;;;;17.49;80.24;96639.41;5064508;28;20506;-58
2022/08/02 03:21:06;;;;;;;8.85;3.38;;;;;;;16.87;87.69;96647.50;5064542;28;20056;-66
2022/08/02 03:23:33;;;;;;;16.92;3.95;;;;;;;16.46;92.47;96658.84;5064571;28;20608;-58
2022/08/02 03:26:00;;;;;;;9.60;3.15;;;;;;;16.80;90.03;96658.00;5064405;28;20075;-66
2022/08/02 03:28:27;;;;;;;4.00;1.83;;;;;;;17.01;85.19;96666.13;5064570;28;20072;-66
2022/08/02 03:30:54;;;;;;;3.03;1.63;;;;;;;17.11;83.44;96656.75;5064555;28;20052;-59
2022/08/02 03:33:22;;;;;;;2.67;2.08;;;;;;;16.40;91.38;96668.88;5064364;28;20451;-58
2022/08/02 03:35:51;;;;;;;2.45;2.08;;;;;;;16.03;91.97;96598.22;5064540;28;20079;-58
2022/08/02 03:38:21;;;;;;;3.22;2.45;;;;;;;16.51;92.65;96686.34;5062665;28;20056;-58
2022/08/02 03:40:56;;;;;;;2.55;2.35;;;;;;;16.63;91.78;96682.19;5042538;28;20052;-58
2022/08/02 03:43:23;;;;;;;5.70;2.30;;;;;;;16.73;91.25;96686.06;5064264;28;20427;-65
2022/08/02 03:45:55;;;;;;;4.32;2.50;;;;;;;16.61;88.82;96635.06;5064173;28;20052;-65
2022/08/02 03:48:22;;;;;;;3.47;2.88;;;;;;;16.79;87.51;96643.22;5063982;28;20102;-65
2022/08/02 03:51:01;;;;;;;4.90;2.83;;;;;;;17.25;85.84;96684.53;5062649;28;20052;-65
2022/08/02 03:53:29;;;;;;;3.75;2.10;;;;;;;17.44;83.56;96703.47;5064167;28;20062;-65
2022/08/02 03:55:56;;;;;;;2.20;2.00;;;;;;;17.48;83.39;96693.03;5062861;28;20526;-58
2022/08/02 03:58:24;;;;;;;2.35;1.98;;;;;;;17.06;82.17;96607.66;5067612;28;20115;-59
2022/08/02 04:00:52;;;;;;;4.60;1.90;;;;;;;17.69;81.01;96687.06;5067696;28;20045;-58
2022/08/02 04:03:20;;;;;;;2.50;2.30;;;;;;;17.48;80.63;96642.63;5066090;28;20056;-58
2022/08/02 04:05:48;;;;;;;2.58;1.90;;;;;;;17.89;78.98;96677.53;5067774;28;20049;-59
2022/08/02 04:08:29;;;;;;;3.05;1.77;;;;;;;18.06;78.75;96695.25;5066174;28;20064;-59
2022/08/02 04:13:49;;;;;;;1.75;1.50;;;;;;;18.06;78.89;96698.06;5067839;28;20049;-59
2022/08/02 04:16:30;;;;;;;2.00;1.60;;;;;;;18.28;77.76;96693.66;5066451;28;20056;-58
2022/08/02 04:19:00;;;;;;;2.13;1.92;;;;;;;17.77;77.86;96601.69;5067682;28;20060;-66
2022/08/02 04:21:31;;;;;;;5.03;2.20;;;;;;;18.59;76.16;96697.88;5067528;28;20063;-58
2022/08/02 04:24:24;;;;;;;3.72;1.80;;;;;;;18.55;76.07;96676.72;5067694;28;20067;-59
2022/08/02 04:26:56;;;;;;;2.80;1.90;;;;;;;18.93;75.13;96704.00;5067454;28;20554;-59
2022/08/02 04:29:44;;;;;;;1.95;1.85;;;;;;;19.11;73.46;96698.78;5067556;28;20110;-60
2022/08/02 04:32:13;;;;;;;3.42;1.83;;;;;;;18.64;73.45;96618.81;5067197;28;20052;-58
2022/08/02 04:34:41;;;;;;;2.15;1.95;;;;;;;18.96;73.29;96663.03;5067564;28;20063;-66
2022/08/02 04:37:20;;;;;;;2.20;2.00;;;;;;;19.35;73.20;96696.66;5066626;28;20696;-60
2022/08/02 04:39:46;;;;;;;6.10;2.17;;;;;;;19.40;72.22;96676.50;5067160;28;20060;-62
2022/08/02 04:42:24;;;;;;;2.38;2.15;;;;;;;19.61;70.91;96669.56;5066940;28;20056;-66
2022/08/02 04:44:53;;;;;;;2.58;1.65;;;;;;;19.63;70.62;96651.06;5067367;28;20499;-60
2022/08/02 04:47:20;;;;;;;3.35;1.70;;;;;;;19.77;70.62;96664.75;5066681;28;20052;-67
2022/08/02 04:50:07;;;;;;;2.60;1.90;;;;;;;20.04;70.56;96693.41;5066799;28;20503;-59
2022/08/02 04:52:34;;;;;;;1.63;1.52;;;;;;;20.11;70.08;96684.75;5065455;28;20056;-60
2022/08/02 04:55:01;;;;;;;2.53;1.50;;;;;;;20.36;69.50;96703.84;5067250;28;20064;-66
2022/08/02 05:00:18;;;;;;;2.33;1.70;;;;;;;20.12;67.81;96599.16;5066546;28;20161;-63
2022/08/02 05:02:45;;;;;;;3.05;1.55;;;;;;;20.49;67.68;96654.00;5065354;28;20052;-66
2022/08/02 05:05:12;;;;;;;2.13;1.48;;;;;;;20.83;66.88;96671.16;5066643;28;20056;-66
2022/08/02 05:07:39;;;;;;;1.70;1.60;;;;;;;21.14;66.18;96702.44;5065700;28;20056;-67
2022/08/02 05:10:06;;;;;;;18.13;4.10;;;;;;;21.31;71.60;96706.75;5065174;28;20338;-66
2022/08/02 05:12:33;;;;;;;3.40;2.67;;;;;;;21.42;72.72;96698.78;5066935;28;20561;-66
2022/08/02 05:14:59;;;;;;;4.88;2.80;;;;;;;21.42;73.57;96699.53;5066769;28;20056;-59
2022/08/02 05:17:26;;;;;;;2.25;1.98;;;;;;;21.65;72.37;96710.50;5066257;28;20048;-60
2022/08/02 05:19:53;;;;;;;4.22;2.58;;;;;;;21.49;73.79;96713.44;5066903;28;20395;-65
2022/08/02 05:22:19;;;;;;;4.45;2.55;;;;;;;21.33;74.11;96713.53;5066140;28;20045;-57
2022/08/02 05:24:46;;;;;;;3.90;3.00;;;;;;;21.40;74.18;96693.59;5066657;28;20052;-65
2022/08/02 05:27:13;;;;;;;6.93;3.03;;;;;;;21.68;72.54;96709.59;5066453;28;20063;-60
2022/08/02 05:29:48;;;;;;;2.40;2.20;;;;;;;21.71;71.50;96717.16;5064938;28;20249;-65
2022/08/02 05:32:19;;;;;;;2.30;2.10;;;;;;;21.54;69.91;96659.31;5065540;28;20515;-64
2022/08/02 05:34:50;;;;;;;2.28;1.80;;;;;;;21.88;69.88;96718.66;5065143;28;20060;-65
2022/08/02 05:37:18;;;;;;;3.85;2.63;;;;;;;21.76;69.04;96671.50;5066260;28;20060;-58
2022/08/02 05:39:44;;;;;;;2.63;2.42;;;;;;;22.18;67.82;96708.78;5066030;28;20049;-60
2022/08/02 05:42:22;;;;;;;2.45;1.92;;;;;;;22.31;68.39;96730.09;5057919;28;20052;-56
2022/08/02 05:44:48;;;;;;;3.72;1.95;;;;;;;22.14;69.40;96714.56;5064095;28;20609;-69
2022/08/02 05:47:15;;;;;;;3.22;2.67;;;;;;;21.69;68.47;96649.16;5065521;28;20048;-57
2022/08/02 05:49:42;;;;;;;2.08;1.98;;;;;;;22.41;68.13;96723.28;5066070;28;20053;-59
2022/08/02 05:52:17;;;;;;;2.30;2.00;;;;;;;22.08;66.69;96637.34;5064962;28;20538;-71
2022/08/02 05:54:50;;;;;;;3.85;1.90;;;;;;;22.81;66.78;96723.50;5064297;28;20052;-67
2022/08/02 05:57:49;;;;;;;5.53;2.13;;;;;;;23.12;65.03;96732.06;5065314;28;20522;-57
2022/08/02 06:00:16;;;;;;;2.13;1.92;;;;;;;21.44;65.50;96474.44;5063813;28;20044;-59
2022/08/02 06:03:01;;;;;;;3.13;2.42;;;;;;;23.37;63.79;96735.59;5064904;28;20064;-58
2022/08/02 06:05:34;;;;;;;7.03;2.33;;;;;;;23.62;62.54;96732.56;5063327;28;20543;-66
2022/08/02 06:08:02;;;;;;;2.17;2.05;;;;;;;23.85;61.71;96726.38;5065080;28;20435;-60
2022/08/02 06:10:35;;;;;;;3.45;2.17;;;;;;;23.83;60.49;96697.00;5065127;28;20052;-59
2022/08/02 06:13:08;;;;;;;3.05;2.75;;;;;;;24.14;60.64;96740.19;5064482;28;20056;-64
2022/08/02 06:15:40;;;;;;;3.03;2.17;;;;;;;23.67;59.52;96743.28;5064962;28;20141;-57
2022/08/02 06:18:20;;;;;;;3.72;2.67;;;;;;;23.85;59.48;96734.88;5063866;28;20063;-57
2022/08/02 06:21:00;;;;;;;2.38;2.20;;;;;;;23.91;59.72;96720.91;5064774;28;20126;-66
2022/08/02 06:23:47;;;;;;;3.05;2.30;;;;;;;24.01;58.12;96714.09;5065087;28;20467;-68
2022/08/02 06:26:26;;;;;;;2.15;1.92;;;;;;;24.15;56.45;96719.16;5065277;28;20045;-57
2022/08/02 06:28:54;;;;;;;3.95;2.20;;;;;;;24.16;55.71;96641.47;5064915;28;20075;-63
2022/08/02 06:31:21;;;;;;;3.05;2.45;;;;;;;24.70;54.99;96746.34;5057120;28;20060;-68
2022/08/02 06:33:48;;;;;;;2.40;1.90;;;;;;;24.81;54.94;96726.84;5077172;28;20067;-59
2022/08/02 06:36:31;;;;;;;2.20;1.83;;;;;;;25.24;51.76;96729.31;5057450;28;20390;-73
2022/08/02 06:39:12;;;;;;;2.53;2.33;;;;;;;25.70;50.36;96746.28;5054055;28;20075;-58
2022/08/02 06:41:43;;;;;;;1.92;1.83;;;;;;;25.71;48.90;96685.41;5064815;28;20056;-68
2022/08/02 06:44:10;;;;;;;2.10;2.00;;;;;;;26.34;47.45;96705.00;5066329;28;20444;-60
2022/08/02 06:46:57;;;;;;;2.30;2.08;;;;;;;26.76;46.92;96719.91;5064320;28;20060;-57
2022/08/02 06:49:39;;;;;;;3.03;2.83;;;;;;;27.22;46.31;96735.31;5064993;28;20066;-58
2022/08/02 06:52:27;;;;;;;2.30;2.20;;;;;;;26.76;46.20;96646.00;5062683;28;20059;-61
2022/08/02 06:54:58;;;;;;;2.40;2.30;;;;;;;27.06;45.40;96732.94;5063299;28;20049;-60
2022/08/02 06:57:25;;;;;;;2.92;2.50;;;;;;;27.03;46.73;96735.97;5064183;28;20052;-67
2022/08/02 06:59:51;;;;;;;2.50;2.30;;;;;;;27.11;46.04;96740.00;5063091;28;20060;-67
2022/08/02 07:02:18;;;;;;;2.45;2.25;;;;;;;26.89;46.05;96711.91;5061525;28;20102;-61
2022/08/02 07:04:45;;;;;;;3.50;2.60;;;;;;;27.00;46.92;96734.09;5062486;28;20455;-59
2022/08/02 07:07:12;;;;;;;3.38;2.40;;;;;;;27.10;46.07;96733.53;5062281;28;20054;-61
2022/08/02 07:09:39;;;;;;;2.67;2.55;;;;;;;26.83;45.78;96656.19;5062364;28;20053;-60
2022/08/02 07:12:26;;;;;;;3.33;3.05;;;;;;;27.49;44.56;96714.38;5060765;28;20053;-67
2022/08/02 07:14:53;;;;;;;2.95;2.75;;;;;;;27.47;44.80;96746.19;5063691;28;20045;-60
2022/08/02 07:17:20;;;;;;;32.55;19.98;;;;;;;27.37;44.41;96665.03;5063591;28;20063;-67
2022/08/02 07:19:46;;;;;;;3.90;3.60;;;;;;;27.90;45.26;96736.88;5064301;28;20227;-60
2022/08/02 07:22:13;;;;;;;2.97;2.78;;;;;;;28.38;43.88;96740.22;5062734;28;20446;-69
2022/08/02 07:24:40;;;;;;;2.63;2.42;;;;;;;28.77;43.44;96737.97;5064136;28;20060;-62
2022/08/02 07:27:07;;;;;;;3.40;3.10;;;;;;;29.03;43.11;96738.78;5061292;28;20435;-70
2022/08/02 07:29:38;;;;;;;2.67;2.47;;;;;;;29.04;42.86;96744.00;5063804;28;20066;-60
2022/08/02 07:32:13;;;;;;;2.90;2.70;;;;;;;29.28;41.89;96735.22;5066230;28;20056;-68
2022/08/02 07:34:41;;;;;;;2.97;2.78;;;;;;;27.96;42.11;96578.25;5068575;28;20060;-68
2022/08/02 07:37:08;;;;;;;2.88;2.67;;;;;;;28.82;42.27;96732.31;5066941;28;20114;-69
2022/08/02 07:39:55;;;;;;;3.97;2.92;;;;;;;28.66;41.52;96715.00;5068334;28;20248;-59
2022/08/02 07:42:22;;;;;;;3.10;2.83;;;;;;;28.70;42.07;96726.97;5067647;28;20542;-59
2022/08/02 07:44:49;;;;;;;2.80;2.70;;;;;;;28.06;42.76;96662.31;5066651;28;20473;-60
2022/08/02 07:47:16;;;;;;;2.92;2.83;;;;;;;28.07;42.58;96698.03;5066172;28;20048;-68
2022/08/02 07:49:43;;;;;;;2.88;2.67;;;;;;;28.60;42.74;96740.56;5067871;28;20048;-60
2022/08/02 07:52:10;;;;;;;3.08;2.88;;;;;;;28.74;41.70;96699.03;5065816;28;20057;-68
2022/08/02 07:54:37;;;;;;;2.95;2.72;;;;;;;28.93;42.53;96694.56;5067948;28;20117;-69
2022/08/02 07:57:04;;;;;;;4.75;2.88;;;;;;;29.23;41.05;96724.53;5067588;28;20048;-70
2022/08/02 07:59:31;;;;;;;3.15;2.60;;;;;;;29.36;41.82;96740.00;5067753;28;20056;-68
2022/08/02 08:01:58;;;;;;;6.45;2.80;;;;;;;29.94;40.20;96743.72;5067335;28;20523;-60
2022/08/02 08:04:25;;;;;;;3.20;3.00;;;;;;;28.67;42.72;96739.38;5067647;28;20052;-63
2022/08/02 08:06:52;;;;;;;2.90;2.70;;;;;;;28.50;43.27;96741.19;5065840;28;20499;-68
2022/08/02 08:09:19;;;;;;;2.60;2.50;;;;;;;28.91;42.37;96746.41;5067225;28;20568;-60
2022/08/02 08:11:46;;;;;;;4.00;3.67;;;;;;;29.03;41.84;96750.22;5067074;28;20080;-59
2022/08/02 08:14:13;;;;;;;3.60;3.30;;;;;;;29.18;40.77;96745.25;5067422;28;20056;-60
2022/08/02 08:16:42;;;;;;;4.90;4.20;;;;;;;29.39;40.86;96743.91;5066744;28;20114;-60
2022/08/02 08:19:09;;;;;;;3.08;2.88;;;;;;;29.41;40.39;96747.84;5067362;28;20522;-68
2022/08/02 08:21:36;;;;;;;3.28;2.80;;;;;;;29.34;40.20;96708.31;5066932;28;20056;-68
2022/08/02 08:24:03;;;;;;;2.85;2.60;;;;;;;29.67;39.07;96735.69;5067195;28;20056;-61
2022/08/02 08:26:30;;;;;;;3.40;2.63;;;;;;;30.52;38.19;96749.66;5066953;28;20060;-63
2022/08/02 08:28:57;;;;;;;4.40;2.45;;;;;;;30.42;38.60;96702.53;5065020;28;20500;-59
2022/08/02 08:31:23;;;;;;;2.97;2.70;;;;;;;30.66;37.49;96699.28;5066925;28;20056;-68
2022/08/02 08:33:51;;;;;;;3.15;2.90;;;;;;;31.07;38.01;96737.75;5066900;28;20102;-68
2022/08/02 08:36:20;;;;;;;3.13;2.85;;;;;;;31.72;36.92;96729.88;5064929;28;20056;-58
2022/08/02 08:38:47;;;;;;;2.58;2.42;;;;;;;32.12;35.60;96689.31;5066183;28;20068;-67
2022/08/02 08:41:18;;;;;;;3.70;3.40;;;;;;;32.42;35.05;96730.50;5065357;28;20207;-68
2022/08/02 08:43:46;;;;;;;4.10;3.78;;;;;;;31.23;37.14;96739.09;5066393;28;20052;-60
2022/08/02 08:46:27;;;;;;;4.00;3.63;;;;;;;30.16;38.27;96723.91;5066664;28;20064;-60
2022/08/02 08:49:21;;;;;;;3.38;3.08;;;;;;;30.76;37.90;96737.88;5065315;28;20056;-68
2022/08/02 08:51:53;;;;;;;3.15;2.95;;;;;;;30.26;37.93;96736.72;5065827;28;20233;-68
2022/08/02 08:54:24;;;;;;;3.08;2.70;;;;;;;29.78;39.01;96724.34;5064964;28;20052;-68
2022/08/02 08:56:53;;;;;;;3.22;3.03;;;;;;;29.85;39.26;96733.25;5066481;28;20049;-59
2022/08/02 08:59:20;;;;;;;3.42;3.15;;;;;;;30.05;38.72;96732.38;5064548;28;20052;-67
2022/08/02 09:01:49;;;;;;;3.38;3.03;;;;;;;30.07;38.56;96695.50;5064761;28;20053;-68
2022/08/02 09:04:18;;;;;;;4.07;3.67;;;;;;;30.05;38.94;96729.53;5066358;28;20049;-59
2022/08/02 09:06:45;;;;;;;2.70;2.60;;;;;;;28.94;38.54;96661.94;5066093;28;20840;-59
2022/08/02 09:09:11;;;;;;;3.65;3.35;;;;;;;30.08;39.32;96719.94;5065037;28;20056;-67
2022/08/02 09:11:38;;;;;;;3.40;3.20;;;;;;;28.91;39.89;96671.50;5065786;28;20076;-69
2022/08/02 09:14:05;;;;;;;4.40;4.00;;;;;;;29.46;40.06;96727.16;5063819;28;20451;-59
2022/08/02 09:16:37;;;;;;;3.35;3.15;;;;;;;29.00;40.31;96728.38;5065807;28;20559;-67
2022/08/02 09:19:24;;;;;;;3.03;2.83;;;;;;;29.12;40.61;96724.41;5064595;28;20102;-66
2022/08/02 09:22:03;;;;;;;4.13;3.72;;;;;;;29.93;39.82;96714.38;5066418;28;20447;-68
2022/08/02 09:24:50;;;;;;;4.38;3.97;;;;;;;30.39;39.58;96714.22;5066538;28;20064;-58
2022/08/02 09:27:19;;;;;;;4.68;3.50;;;;;;;30.63;38.16;96701.13;5065888;28;20052;-58
2022/08/02 09:29:47;;;;;;;3.55;3.05;;;;;;;30.52;38.13;96715.34;5066406;28;20075;-59
2022/08/02 09:32:45;;;;;;;3.40;3.20;;;;;;;29.52;39.33;96655.81;5064840;28;20056;-59
2022/08/02 09:35:12;;;;;;;3.33;3.13;;;;;;;29.44;40.53;96666.13;5064421;28;20052;-60
2022/08/02 09:37:39;;;;;;;5.00;3.05;;;;;;;29.50;40.02;96661.25;5065543;28;20056;-60
2022/08/02 09:40:09;;;;;;;2.92;2.72;;;;;;;29.71;39.42;96679.09;5065655;28;20056;-59
2022/08/02 09:42:36;;;;;;;5.50;4.22;;;;;;;29.65;39.54;96721.91;5065467;28;20892;-67
2022/08/02 09:45:03;;;;;;;5.68;3.40;;;;;;;29.50;39.62;96704.84;5063596;28;20075;-69
2022/08/02 09:47:30;;;;;;;2.78;2.58;;;;;;;29.71;38.52;96674.19;5063951;28;20060;-60
2022/08/02 09:49:57;;;;;;;5.13;3.80;;;;;;;29.93;38.77;96731.50;5065651;28;20044;-59
2022/08/02 09:52:28;;;;;;;5.30;3.22;;;;;;;29.27;40.22;96708.78;5063654;28;20063;-67
2022/08/02 09:55:10;;;;;;;2.90;2.70;;;;;;;29.26;39.41;96717.84;5064974;28;20522;-68
2022/08/02 09:57:37;;;;;;;2.60;2.50;;;;;;;28.38;40.87;96717.41;5064989;28;20052;-68
2022/08/02 10:00:12;;;;;;;3.28;3.17;;;;;;;29.33;40.05;96711.69;5065492;28;20142;-68
2022/08/02 10:03:09;;;;;;;3.88;3.50;;;;;;;29.74;39.07;96718.88;5064921;28;20542;-68
2022/08/02 10:05:52;;;;;;;3.05;2.92;;;;;;;29.86;38.22;96717.66;5065235;28;20530;-68
2022/08/02 10:08:27;;;;;;;2.75;2.55;;;;;;;29.28;38.32;96593.31;5065365;28;20049;-59
2022/08/02 10:11:00;;;;;;;2.67;2.50;;;;;;;30.32;37.78;96671.81;5065405;28;20052;-59
2022/08/02 10:13:28;;;;;;;;;;;;;;;30.83;37.28;96703.03;5065761;28;20044;-67
2022/08/02 10:15:56;;;;;;;3.35;3.15;;;;;;;30.51;37.30;96690.88;5064644;28;20454;-60
2022/08/02 10:18:22;;;;;;;3.58;3.08;;;;;;;29.83;37.33;96635.84;5064914;28;20049;-60
2022/08/02 10:21:09;;;;;;;3.22;3.03;;;;;;;30.23;38.11;96669.16;5064955;28;20056;-63
2022/08/02 10:23:39;;;;;;;4.60;4.20;;;;;;;30.49;38.05;96721.31;5063095;28;20048;-63
2022/08/02 10:26:07;;;;;;;3.30;3.10;;;;;;;31.40;36.27;96705.59;5064622;28;20439;-66
2022/08/02 10:28:35;;;;;;;4.75;2.83;;;;;;;30.26;36.87;96620.31;5064979;28;20056;-61
2022/08/02 10:31:04;;;;;;;3.40;3.20;;;;;;;29.94;37.51;96601.66;5064553;28;20493;-68
2022/08/02 10:33:35;;;;;;;3.42;3.22;;;;;;;30.25;38.07;96707.38;5064836;28;20060;-68
2022/08/02 10:36:04;;;;;;;3.85;3.63;;;;;;;30.34;37.62;96690.00;5063594;28;20047;-69
2022/08/02 10:38:34;;;;;;;3.08;2.95;;;;;;;29.85;37.83;96696.13;5063236;28;20173;-62
2022/08/02 10:41:01;;;;;;;5.20;4.07;;;;;;;29.81;39.01;96681.28;5062932;28;20076;-61
2022/08/02 10:43:31;;;;;;;3.17;2.97;;;;;;;30.58;36.81;96753.34;5062935;28;20109;-68
2022/08/02 10:46:23;;;;;;;3.30;3.00;;;;;;;30.29;37.73;96696.47;5063641;28;20059;-60
2022/08/02 10:49:12;;;;;;;2.80;2.60;;;;;;;30.43;37.06;96694.75;5064250;28;20052;-60
2022/08/02 10:51:59;;;;;;;3.63;3.42;;;;;;;30.77;36.99;96694.44;5062829;28;20086;-61
2022/08/02 10:54:42;;;;;;;8.27;3.30;;;;;;;31.07;36.82;96697.69;5064804;28;20507;-61
2022/08/02 10:57:18;;;;;;;2.92;2.83;;;;;;;31.03;36.65;96693.50;5060678;28;20052;-62
2022/08/02 10:59:45;;;;;;;2.88;2.70;;;;;;;30.93;35.73;96688.03;5063646;28;20404;-69
2022/08/02 11:02:12;;;;;;;3.90;2.97;;;;;;;29.79;37.16;96628.81;5054637;28;20051;-63
2022/08/02 11:04:39;;;;;;;3.58;2.80;;;;;;;31.13;35.75;96686.25;5051787;28;20053;-71
2022/08/02 11:07:15;;;;;;;2.60;2.47;;;;;;;31.18;36.55;96679.75;5058794;28;20757;-69
2022/08/02 11:09:50;;;;;;;3.05;2.85;;;;;;;31.28;35.91;96689.69;5064013;28;20427;-68
2022/08/02 11:12:19;;;;;;;3.20;2.95;;;;;;;31.61;35.25;96641.06;5063171;28;20055;-66
2022/08/02 11:14:58;;;;;;;3.38;3.17;;;;;;;31.81;35.02;96683.78;5055396;28;20045;-69
2022/08/02 11:17:27;;;;;;;3.53;3.22;;;;;;;31.72;35.53;96679.13;5058203;28;20056;-63
2022/08/02 11:20:09;;;;;;;3.55;3.25;;;;;;;32.31;33.69;96668.16;5063674;28;20048;-72
2022/08/02 11:22:40;;;;;;;3.28;3.08;;;;;;;30.81;35.87;96703.56;5058691;28;20045;-65
2022/08/02 11:25:22;;;;;;;2.83;2.65;;;;;;;30.99;35.07;96673.72;5052043;28;20049;-64
2022/08/02 11:28:07;;;;;;;2.80;2.70;;;;;;;31.42;35.00;96651.47;5063664;28;20569;-65
2022/08/02 11:30:35;;;;;;;2.92;2.80;;;;;;;32.05;34.16;96673.41;5062626;28;20517;-72
2022/08/02 11:33:02;;;;;;;2.90;2.80;;;;;;;32.01;34.19;96644.22;5060201;28;20048;-73
2022/08/02 11:35:35;;;;;;;2.95;2.80;;;;;;;32.25;33.82;96669.44;5059148;28;20511;-62
2022/08/02 11:38:19;;;;;;;3.25;2.95;;;;;;;30.13;34.46;96379.91;5051228;28;20439;-65
2022/08/02 11:40:47;;;;;;;3.28;3.10;;;;;;;31.89;34.49;96661.94;5063414;28;20048;-60
2022/08/02 11:43:22;;;;;;;2.92;2.60;;;;;;;31.42;35.54;96631.44;5064014;28;20099;-73
2022/08/02 11:45:51;;;;;;;2.95;2.75;;;;;;;31.02;34.91;96661.25;5061726;28;20086;-59
2022/08/02 11:48:32;;;;;;;3.22;3.03;;;;;;;31.12;35.27;96656.84;5052020;28;20065;-81
2022/08/02 11:51:08;;;;;;;3.25;2.90;;;;;;;31.29;34.93;96668.34;5043803;28;20106;-73
2022/08/02 11:53:48;;;;;;;2.85;2.75;;;;;;;31.29;34.60;96662.59;5044216;28;20485;-59
2022/08/02 11:56:24;;;;;;;3.67;3.38;;;;;;;32.03;33.35;96655.16;5047152;28;20540;-60
2022/08/02 11:59:10;;;;;;;3.25;3.03;;;;;;;31.59;33.15;96658.00;5045844;28;20063;-75
2022/08/02 12:01:40;;;;;;;3.55;3.25;;;;;;;32.30;33.48;96660.06;5055145;28;20049;-67
2022/08/02 12:04:16;;;;;;;3.58;3.38;;;;;;;30.64;32.96;96568.25;5062841;28;20052;-74
2022/08/02 12:06:43;;;;;;;3.20;3.00;;;;;;;31.05;33.83;96660.19;5062731;28;20101;-60